Impacts METAR Board
IDs:

KPDX - Portland Intl Arpt, OR, US

Updated at: 0300 UTC 06 Dec 2019
Potential Impact None Slight Moderate High
Time 05/15Z 05/16Z 05/17Z 05/18Z 05/19Z 05/20Z 05/21Z 05/22Z 05/23Z 06/00Z 06/01Z 06/02Z 06/03Z
Temp42 41 43 45 48 50 51 53 52 48 46 46 45
Dewpt37 37 38 38 39 38 38 39 39 38 37 37 38
Altim30.00 30.02 30.04 30.06 30.07 30.05 30.05 30.03 30.03 30.02 30.01 30.01 30.00
VIS10 10 10 10 10 10 10 10 10 10 10 10 10
CIG250 130 180 46 160 -- -- -- -- -- -- -- --
CoverBKNBKNBKNBKNBKNSCTSCTSCTSCTSCTSCTSCTSCT
FltCatVFRVFRVFRVFRVFRVFRVFRVFRVFRVFRVFRVFRVFR
WX--------------------------
WDir9000100901201309012013014000
WSpd5 0 0 5 6 10 4 5 3 4 5 0 0
WGst-- -- -- -- -- -- -- -- -- -- -- -- --
Raw hourly METARs
KPDX 051453Z 09005KT 10SM SCT140 BKN250 06/03 A3000 RMK AO2 SLP159 T00560028 53007
KPDX 051553Z 00000KT 10SM BKN130 BKN250 05/03 A3002 RMK AO2 SLP166 T00500028
KPDX 051653Z 00000KT 10SM SCT130 BKN180 BKN250 06/03 A3004 RMK AO2 SLP171 T00610033
KPDX 051753Z 10005KT 10SM BKN046 BKN150 07/03 A3006 RMK AO2 SLP179 T00720033 10072 20039 53020
KPDX 051853Z 09006KT 10SM FEW045 SCT060 BKN160 09/04 A3007 RMK AO2 SLP180 T00890039
KPDX 051953Z 12010KT 10SM SCT060 SCT180 10/03 A3005 RMK AO2 SLP174 T01000033
KPDX 052053Z 13004KT 10SM FEW060 SCT080 SCT180 11/03 A3005 RMK AO2 SLP174 T01060033 58005
KPDX 052153Z 09005KT 10SM FEW050 SCT080 SCT250 12/04 A3003 RMK AO2 SLP168 T01170039
KPDX 052253Z 12003KT 10SM FEW050 FEW080 SCT250 11/04 A3003 RMK AO2 SLP167 T01110039
KPDX 052353Z 13004KT 10SM SCT090 SCT250 09/03 A3002 RMK AO2 SLP164 T00890033 10117 20078 56010
KPDX 060053Z 14005KT 10SM FEW090 SCT250 08/03 A3001 RMK AO2 SLP162 T00780028
KPDX 060153Z 00000KT 10SM FEW090 SCT250 08/03 A3001 RMK AO2 SLP160 T00780028
KPDX 060253Z 00000KT 10SM FEW090 SCT250 07/03 A3000 RMK AO2 SLP158 T00720033 57005



Page loaded:  03:42 UTC  |   07:42 PM Pacific  |   08:42 PM Mountain  |   09:42 PM Central  |   10:42 PM Eastern

 

ADVISORIES

FORECASTS

FORECASTS

OBSERVATIONS

USER TOOLS

ABOUT US